sensor_id;sensor_type;location;lat;lon;timestamp;pressure;altitude;pressure_sealevel;temperature;humidity
17785;BME280;9016;53.582;10.062;2024-02-04T00:00:31;101679.41;;;8.84;77.61
17785;BME280;9016;53.582;10.062;2024-02-04T00:02:59;101673.13;;;8.86;78.01
17785;BME280;9016;53.582;10.062;2024-02-04T00:05:27;101666.19;;;8.82;77.97
17785;BME280;9016;53.582;10.062;2024-02-04T00:07:55;101661.06;;;8.78;78.42
17785;BME280;9016;53.582;10.062;2024-02-04T00:10:23;101660.28;;;8.74;78.52
17785;BME280;9016;53.582;10.062;2024-02-04T00:12:55;101656.66;;;8.77;77.98
17785;BME280;9016;53.582;10.062;2024-02-04T00:15:23;101657.63;;;8.74;78.39
17785;BME280;9016;53.582;10.062;2024-02-04T00:17:51;101654.13;;;8.74;77.91
17785;BME280;9016;53.582;10.062;2024-02-04T00:20:20;101670.22;;;8.69;77.52
17785;BME280;9016;53.582;10.062;2024-02-04T00:22:48;101670.16;;;8.71;78.32
17785;BME280;9016;53.582;10.062;2024-02-04T00:25:16;101680.78;;;8.71;78.72
17785;BME280;9016;53.582;10.062;2024-02-04T00:27:46;101691.19;;;8.77;78.04
17785;BME280;9016;53.582;10.062;2024-02-04T00:30:16;101689.50;;;8.74;78.18
17785;BME280;9016;53.582;10.062;2024-02-04T00:32:44;101686.91;;;8.73;78.01
17785;BME280;9016;53.582;10.062;2024-02-04T00:35:12;101682.53;;;8.72;78.92
17785;BME280;9016;53.582;10.062;2024-02-04T00:37:40;101680.97;;;8.66;78.40
17785;BME280;9016;53.582;10.062;2024-02-04T00:40:09;101674.91;;;8.63;78.81
17785;BME280;9016;53.582;10.062;2024-02-04T00:42:38;101676.56;;;8.65;79.01
17785;BME280;9016;53.582;10.062;2024-02-04T00:45:06;101665.38;;;8.57;78.66
17785;BME280;9016;53.582;10.062;2024-02-04T00:47:36;101655.66;;;8.56;79.43
17785;BME280;9016;53.582;10.062;2024-02-04T00:50:05;101639.84;;;8.53;79.68
17785;BME280;9016;53.582;10.062;2024-02-04T00:52:33;101634.34;;;8.58;80.30
17785;BME280;9016;53.582;10.062;2024-02-04T00:55:01;101625.69;;;8.53;78.94
17785;BME280;9016;53.582;10.062;2024-02-04T00:57:30;101620.91;;;8.62;78.81
17785;BME280;9016;53.582;10.062;2024-02-04T00:59:58;101626.22;;;8.62;79.54
17785;BME280;9016;53.582;10.062;2024-02-04T01:02:26;101617.78;;;8.51;79.98
17785;BME280;9016;53.582;10.062;2024-02-04T01:04:55;101631.88;;;8.53;79.74
17785;BME280;9016;53.582;10.062;2024-02-04T01:07:23;101628.22;;;8.56;79.11
17785;BME280;9016;53.582;10.062;2024-02-04T01:09:51;101626.50;;;8.55;78.69
17785;BME280;9016;53.582;10.062;2024-02-04T01:12:19;101623.56;;;8.62;79.35
17785;BME280;9016;53.582;10.062;2024-02-04T01:14:47;101625.28;;;8.63;79.74
17785;BME280;9016;53.582;10.062;2024-02-04T01:17:15;101619.75;;;8.69;79.30
17785;BME280;9016;53.582;10.062;2024-02-04T01:19:43;101621.50;;;8.70;79.21
17785;BME280;9016;53.582;10.062;2024-02-04T01:22:13;101617.47;;;8.82;78.04
17785;BME280;9016;53.582;10.062;2024-02-04T01:24:41;101622.03;;;8.78;78.13
17785;BME280;9016;53.582;10.062;2024-02-04T01:27:09;101620.69;;;8.90;78.44
17785;BME280;9016;53.582;10.062;2024-02-04T01:29:37;101615.75;;;9.02;78.21
17785;BME280;9016;53.582;10.062;2024-02-04T01:32:06;101612.78;;;8.88;77.25
17785;BME280;9016;53.582;10.062;2024-02-04T01:34:34;101616.69;;;9.02;77.33
17785;BME280;9016;53.582;10.062;2024-02-04T01:37:02;101611.09;;;9.09;75.83
17785;BME280;9016;53.582;10.062;2024-02-04T01:39:32;101622.13;;;8.98;77.30
17785;BME280;9016;53.582;10.062;2024-02-04T01:42:00;101616.00;;;8.96;77.12
17785;BME280;9016;53.582;10.062;2024-02-04T01:44:28;101615.44;;;8.88;77.40
17785;BME280;9016;53.582;10.062;2024-02-04T01:46:56;101607.28;;;8.93;76.36
17785;BME280;9016;53.582;10.062;2024-02-04T01:49:25;101606.31;;;8.95;77.30
17785;BME280;9016;53.582;10.062;2024-02-04T01:51:53;101625.72;;;8.97;76.66
17785;BME280;9016;53.582;10.062;2024-02-04T01:54:23;101622.09;;;9.00;77.01
17785;BME280;9016;53.582;10.062;2024-02-04T01:56:55;101616.50;;;9.06;77.32
17785;BME280;9016;53.582;10.062;2024-02-04T01:59:23;101616.41;;;9.09;76.53
17785;BME280;9016;53.582;10.062;2024-02-04T02:01:55;101602.00;;;9.15;76.21
17785;BME280;9016;53.582;10.062;2024-02-04T02:04:23;101621.75;;;9.08;76.46
17785;BME280;9016;53.582;10.062;2024-02-04T02:06:52;101613.59;;;9.12;76.28
17785;BME280;9016;53.582;10.062;2024-02-04T02:09:21;101615.28;;;9.15;76.09
17785;BME280;9016;53.582;10.062;2024-02-04T02:11:57;101618.63;;;9.20;77.03
17785;BME280;9016;53.582;10.062;2024-02-04T02:14:32;101618.47;;;9.23;76.32
17785;BME280;9016;53.582;10.062;2024-02-04T02:17:06;101614.84;;;9.25;76.47
17785;BME280;9016;53.582;10.062;2024-02-04T02:19:42;101603.41;;;9.23;76.04
17785;BME280;9016;53.582;10.062;2024-02-04T02:22:24;101603.34;;;9.25;75.92
17785;BME280;9016;53.582;10.062;2024-02-04T02:24:56;101603.88;;;9.33;76.13
17785;BME280;9016;53.582;10.062;2024-02-04T02:27:25;101594.72;;;9.40;75.43
17785;BME280;9016;53.582;10.062;2024-02-04T02:29:54;101585.53;;;9.27;75.35
17785;BME280;9016;53.582;10.062;2024-02-04T02:32:22;101591.47;;;9.33;75.71
17785;BME280;9016;53.582;10.062;2024-02-04T02:34:51;101587.63;;;9.40;75.71
17785;BME280;9016;53.582;10.062;2024-02-04T02:37:26;101587.72;;;9.37;75.09
17785;BME280;9016;53.582;10.062;2024-02-04T02:39:59;101583.84;;;9.24;74.71
17785;BME280;9016;53.582;10.062;2024-02-04T02:42:32;101589.38;;;9.20;76.05
17785;BME280;9016;53.582;10.062;2024-02-04T02:45:01;101580.44;;;9.21;76.26
17785;BME280;9016;53.582;10.062;2024-02-04T02:47:30;101569.34;;;9.11;76.61
17785;BME280;9016;53.582;10.062;2024-02-04T02:50:00;101569.38;;;9.10;75.66
17785;BME280;9016;53.582;10.062;2024-02-04T02:52:28;101572.69;;;8.94;76.41
17785;BME280;9016;53.582;10.062;2024-02-04T02:54:57;101565.56;;;8.95;76.95
17785;BME280;9016;53.582;10.062;2024-02-04T02:57:26;101573.81;;;8.89;76.39
17785;BME280;9016;53.582;10.062;2024-02-04T02:59:54;101568.22;;;8.95;76.80
17785;BME280;9016;53.582;10.062;2024-02-04T03:02:22;101564.34;;;9.04;76.64
17785;BME280;9016;53.582;10.062;2024-02-04T03:04:50;101562.59;;;9.02;76.33
17785;BME280;9016;53.582;10.062;2024-02-04T03:07:18;101549.50;;;8.98;75.51
17785;BME280;9016;53.582;10.062;2024-02-04T03:09:46;101551.44;;;8.94;75.94
17785;BME280;9016;53.582;10.062;2024-02-04T03:12:15;101553.00;;;8.98;76.21
17785;BME280;9016;53.582;10.062;2024-02-04T03:14:43;101543.06;;;9.04;75.78
17785;BME280;9016;53.582;10.062;2024-02-04T03:17:11;101546.78;;;8.99;77.51
17785;BME280;9016;53.582;10.062;2024-02-04T03:19:40;101544.78;;;9.05;76.22
17785;BME280;9016;53.582;10.062;2024-02-04T03:22:08;101541.31;;;9.02;75.83
17785;BME280;9016;53.582;10.062;2024-02-04T03:24:36;101539.78;;;8.97;75.63
17785;BME280;9016;53.582;10.062;2024-02-04T03:27:04;101548.56;;;8.99;75.21
17785;BME280;9016;53.582;10.062;2024-02-04T03:29:34;101546.56;;;9.04;76.27
17785;BME280;9016;53.582;10.062;2024-02-04T03:32:02;101542.94;;;9.07;75.42
17785;BME280;9016;53.582;10.062;2024-02-04T03:34:30;101535.53;;;8.93;75.89
17785;BME280;9016;53.582;10.062;2024-02-04T03:36:58;101540.66;;;8.97;76.23
17785;BME280;9016;53.582;10.062;2024-02-04T03:39:26;101531.88;;;8.95;75.94
17785;BME280;9016;53.582;10.062;2024-02-04T03:41:54;101536.38;;;8.93;76.63
17785;BME280;9016;53.582;10.062;2024-02-04T03:44:22;101538.97;;;8.95;76.69
17785;BME280;9016;53.582;10.062;2024-02-04T03:46:52;101538.00;;;8.97;76.61
17785;BME280;9016;53.582;10.062;2024-02-04T03:49:21;101528.56;;;8.90;76.51
17785;BME280;9016;53.582;10.062;2024-02-04T03:51:49;101523.34;;;8.87;76.14
17785;BME280;9016;53.582;10.062;2024-02-04T03:54:17;101524.28;;;8.86;76.95
17785;BME280;9016;53.582;10.062;2024-02-04T03:56:46;101518.03;;;8.87;75.80
17785;BME280;9016;53.582;10.062;2024-02-04T03:59:14;101511.00;;;8.86;76.59
17785;BME280;9016;53.582;10.062;2024-02-04T04:01:47;101509.06;;;8.90;76.48
17785;BME280;9016;53.582;10.062;2024-02-04T04:04:17;101507.59;;;8.83;76.50
17785;BME280;9016;53.582;10.062;2024-02-04T04:06:45;101504.94;;;8.83;77.10
17785;BME280;9016;53.582;10.062;2024-02-04T04:09:15;101502.59;;;8.75;76.65
17785;BME280;9016;53.582;10.062;2024-02-04T04:11:43;101520.56;;;8.69;77.97
17785;BME280;9016;53.582;10.062;2024-02-04T04:14:11;101514.19;;;8.73;77.97
17785;BME280;9016;53.582;10.062;2024-02-04T04:16:42;101511.03;;;8.63;78.06
17785;BME280;9016;53.582;10.062;2024-02-04T04:19:11;101507.34;;;8.67;78.18
17785;BME280;9016;53.582;10.062;2024-02-04T04:21:40;101509.47;;;8.59;78.36
17785;BME280;9016;53.582;10.062;2024-02-04T04:24:10;101508.38;;;8.63;78.90
17785;BME280;9016;53.582;10.062;2024-02-04T04:26:38;101503.13;;;8.62;79.13
17785;BME280;9016;53.582;10.062;2024-02-04T04:29:06;101504.63;;;8.69;78.88
17785;BME280;9016;53.582;10.062;2024-02-04T04:31:34;101502.09;;;8.66;79.16
17785;BME280;9016;53.582;10.062;2024-02-04T04:34:02;101512.34;;;8.53;80.10
17785;BME280;9016;53.582;10.062;2024-02-04T04:36:31;101518.34;;;8.58;80.06
17785;BME280;9016;53.582;10.062;2024-02-04T04:39:01;101517.72;;;8.52;80.51
17785;BME280;9016;53.582;10.062;2024-02-04T04:41:29;101525.50;;;8.56;80.38
17785;BME280;9016;53.582;10.062;2024-02-04T04:43:57;101532.88;;;8.50;80.77
17785;BME280;9016;53.582;10.062;2024-02-04T04:46:25;101530.06;;;8.53;80.88
17785;BME280;9016;53.582;10.062;2024-02-04T04:48:53;101517.91;;;8.47;80.67
17785;BME280;9016;53.582;10.062;2024-02-04T04:51:25;101517.75;;;8.50;80.90
17785;BME280;9016;53.582;10.062;2024-02-04T04:53:54;101504.75;;;8.44;81.91
17785;BME280;9016;53.582;10.062;2024-02-04T04:56:24;101493.09;;;8.48;81.04
17785;BME280;9016;53.582;10.062;2024-02-04T04:58:52;101493.75;;;8.53;81.30
17785;BME280;9016;53.582;10.062;2024-02-04T05:01:20;101479.66;;;8.51;82.27
17785;BME280;9016;53.582;10.062;2024-02-04T05:03:48;101477.00;;;8.51;81.09
17785;BME280;9016;53.582;10.062;2024-02-04T05:06:16;101469.22;;;8.47;82.37
17785;BME280;9016;53.582;10.062;2024-02-04T05:08:44;101466.75;;;8.42;82.29
17785;BME280;9016;53.582;10.062;2024-02-04T05:11:15;101473.03;;;8.40;81.80
17785;BME280;9016;53.582;10.062;2024-02-04T05:13:44;101480.91;;;8.43;82.20
17785;BME280;9016;53.582;10.062;2024-02-04T05:16:12;101471.44;;;8.36;82.35
17785;BME280;9016;53.582;10.062;2024-02-04T05:18:40;101475.94;;;8.34;83.23
17785;BME280;9016;53.582;10.062;2024-02-04T05:21:11;101466.69;;;8.44;82.50
17785;BME280;9016;53.582;10.062;2024-02-04T05:23:39;101467.31;;;8.50;82.30
17785;BME280;9016;53.582;10.062;2024-02-04T05:26:07;101472.25;;;8.38;81.87
17785;BME280;9016;53.582;10.062;2024-02-04T05:28:35;101466.38;;;8.30;82.69
17785;BME280;9016;53.582;10.062;2024-02-04T05:31:05;101458.41;;;8.30;83.15
17785;BME280;9016;53.582;10.062;2024-02-04T05:33:33;101466.31;;;8.31;82.85
17785;BME280;9016;53.582;10.062;2024-02-04T05:36:01;101452.38;;;8.26;83.67
17785;BME280;9016;53.582;10.062;2024-02-04T05:38:30;101459.59;;;8.21;83.56
17785;BME280;9016;53.582;10.062;2024-02-04T05:40:58;101456.88;;;8.24;83.85
17785;BME280;9016;53.582;10.062;2024-02-04T05:43:26;101452.88;;;8.13;83.29
17785;BME280;9016;53.582;10.062;2024-02-04T05:45:54;101442.53;;;8.28;83.73
17785;BME280;9016;53.582;10.062;2024-02-04T05:48:23;101439.88;;;8.28;83.11
17785;BME280;9016;53.582;10.062;2024-02-04T05:50:52;101439.88;;;8.28;83.44
17785;BME280;9016;53.582;10.062;2024-02-04T05:53:20;101445.78;;;8.13;83.59
17785;BME280;9016;53.582;10.062;2024-02-04T05:55:48;101433.13;;;8.20;83.07
17785;BME280;9016;53.582;10.062;2024-02-04T05:58:16;101442.06;;;8.17;84.22
17785;BME280;9016;53.582;10.062;2024-02-04T06:00:44;101444.78;;;8.16;83.74
17785;BME280;9016;53.582;10.062;2024-02-04T06:03:12;101443.66;;;8.21;84.01
17785;BME280;9016;53.582;10.062;2024-02-04T06:05:42;101456.75;;;8.27;83.48
17785;BME280;9016;53.582;10.062;2024-02-04T06:08:10;101456.75;;;8.27;83.39
17785;BME280;9016;53.582;10.062;2024-02-04T06:10:38;101445.00;;;8.33;83.90
17785;BME280;9016;53.582;10.062;2024-02-04T06:13:06;101442.69;;;8.24;83.14
17785;BME280;9016;53.582;10.062;2024-02-04T06:15:34;101453.72;;;8.36;83.15
17785;BME280;9016;53.582;10.062;2024-02-04T06:18:03;101456.50;;;8.33;83.62
17785;BME280;9016;53.582;10.062;2024-02-04T06:20:31;101436.75;;;8.40;82.67
17785;BME280;9016;53.582;10.062;2024-02-04T06:23:01;101452.53;;;8.43;83.01
17785;BME280;9016;53.582;10.062;2024-02-04T06:25:29;101451.94;;;8.37;82.63
17785;BME280;9016;53.582;10.062;2024-02-04T06:27:57;101444.22;;;8.31;82.72
17785;BME280;9016;53.582;10.062;2024-02-04T06:30:25;101437.66;;;8.39;82.58
17785;BME280;9016;53.582;10.062;2024-02-04T06:32:53;101434.03;;;8.42;81.74
17785;BME280;9016;53.582;10.062;2024-02-04T06:35:23;101427.84;;;8.41;82.49
17785;BME280;9016;53.582;10.062;2024-02-04T06:37:51;101446.19;;;8.47;82.22
17785;BME280;9016;53.582;10.062;2024-02-04T06:40:21;101432.84;;;8.49;81.67
17785;BME280;9016;53.582;10.062;2024-02-04T06:42:49;101429.00;;;8.56;81.67
17785;BME280;9016;53.582;10.062;2024-02-04T06:45:17;101428.25;;;8.52;81.91
17785;BME280;9016;53.582;10.062;2024-02-04T06:47:45;101423.03;;;8.51;81.42
17785;BME280;9016;53.582;10.062;2024-02-04T06:50:13;101430.91;;;8.52;81.09
17785;BME280;9016;53.582;10.062;2024-02-04T06:52:42;101420.00;;;8.38;80.45
17785;BME280;9016;53.582;10.062;2024-02-04T06:55:11;101423.63;;;8.36;81.87
17785;BME280;9016;53.582;10.062;2024-02-04T06:57:40;101417.91;;;8.46;80.70
17785;BME280;9016;53.582;10.062;2024-02-04T07:00:10;101417.78;;;8.49;80.67
17785;BME280;9016;53.582;10.062;2024-02-04T07:02:38;101422.50;;;8.43;81.05
17785;BME280;9016;53.582;10.062;2024-02-04T07:05:06;101415.25;;;8.46;80.95
17785;BME280;9016;53.582;10.062;2024-02-04T07:07:35;101416.72;;;8.53;80.71
17785;BME280;9016;53.582;10.062;2024-02-04T07:10:03;101412.63;;;8.45;80.19
17785;BME280;9016;53.582;10.062;2024-02-04T07:12:31;101401.34;;;8.40;81.30
17785;BME280;9016;53.582;10.062;2024-02-04T07:15:01;101400.06;;;8.50;80.19
17785;BME280;9016;53.582;10.062;2024-02-04T07:17:29;101401.97;;;8.46;81.22
17785;BME280;9016;53.582;10.062;2024-02-04T07:19:57;101408.28;;;8.44;80.15
17785;BME280;9016;53.582;10.062;2024-02-04T07:22:26;101417.78;;;8.49;80.58
17785;BME280;9016;53.582;10.062;2024-02-04T07:24:54;101416.84;;;8.50;80.96
17785;BME280;9016;53.582;10.062;2024-02-04T07:27:22;101422.84;;;8.55;81.02
17785;BME280;9016;53.582;10.062;2024-02-04T07:29:50;101406.19;;;8.52;80.00
17785;BME280;9016;53.582;10.062;2024-02-04T07:32:22;101416.16;;;8.45;80.40
17785;BME280;9016;53.582;10.062;2024-02-04T07:34:51;101409.00;;;8.47;80.40
17785;BME280;9016;53.582;10.062;2024-02-04T07:37:19;101396.53;;;8.49;81.17
17785;BME280;9016;53.582;10.062;2024-02-04T07:39:47;101402.94;;;8.65;80.26
17785;BME280;9016;53.582;10.062;2024-02-04T07:42:15;101392.31;;;8.65;79.31
17785;BME280;9016;53.582;10.062;2024-02-04T07:44:43;101382.94;;;8.57;79.42
17785;BME280;9016;53.582;10.062;2024-02-04T07:47:11;101394.22;;;8.62;79.84
17785;BME280;9016;53.582;10.062;2024-02-04T07:49:41;101403.44;;;8.53;79.61
17785;BME280;9016;53.582;10.062;2024-02-04T07:52:09;101387.28;;;8.59;80.11
17785;BME280;9016;53.582;10.062;2024-02-04T07:54:37;101399.88;;;8.74;79.27
17785;BME280;9016;53.582;10.062;2024-02-04T07:57:06;101390.44;;;8.67;79.78
17785;BME280;9016;53.582;10.062;2024-02-04T07:59:34;101407.81;;;8.76;78.91
17785;BME280;9016;53.582;10.062;2024-02-04T08:02:02;101388.13;;;8.80;78.86
17785;BME280;9016;53.582;10.062;2024-02-04T08:04:32;101384.56;;;8.81;79.05
17785;BME280;9016;53.582;10.062;2024-02-04T08:07:03;101384.22;;;8.68;79.02
17785;BME280;9016;53.582;10.062;2024-02-04T08:09:32;101390.50;;;8.66;79.66
17785;BME280;9016;53.582;10.062;2024-02-04T08:12:04;101402.09;;;8.85;79.33
17785;BME280;9016;53.582;10.062;2024-02-04T08:14:33;101388.69;;;8.88;79.17
17785;BME280;9016;53.582;10.062;2024-02-04T08:17:01;101394.94;;;8.87;78.52
17785;BME280;9016;53.582;10.062;2024-02-04T08:19:29;101391.19;;;8.91;78.79
17785;BME280;9016;53.582;10.062;2024-02-04T08:21:57;101394.72;;;9.12;78.02
17785;BME280;9016;53.582;10.062;2024-02-04T08:24:27;101400.19;;;9.09;77.17
17785;BME280;9016;53.582;10.062;2024-02-04T08:26:56;101392.22;;;9.09;76.94
17785;BME280;9016;53.582;10.062;2024-02-04T08:29:25;101406.41;;;9.08;78.13
17785;BME280;9016;53.582;10.062;2024-02-04T08:31:53;101398.25;;;9.12;77.22
17785;BME280;9016;53.582;10.062;2024-02-04T08:34:21;101389.69;;;9.26;77.30
17785;BME280;9016;53.582;10.062;2024-02-04T08:36:51;101400.44;;;9.23;76.97
17785;BME280;9016;53.582;10.062;2024-02-04T08:39:19;101393.00;;;9.31;76.70
17785;BME280;9016;53.582;10.062;2024-02-04T08:41:48;101390.91;;;9.37;76.38
17785;BME280;9016;53.582;10.062;2024-02-04T08:44:16;101395.81;;;9.46;75.39
17785;BME280;9016;53.582;10.062;2024-02-04T08:47:01;101394.34;;;9.39;76.08
17785;BME280;9016;53.582;10.062;2024-02-04T08:49:30;101392.00;;;9.33;75.83
17785;BME280;9016;53.582;10.062;2024-02-04T08:51:58;101386.16;;;9.25;76.55
17785;BME280;9016;53.582;10.062;2024-02-04T08:54:26;101388.81;;;9.25;76.21
17785;BME280;9016;53.582;10.062;2024-02-04T08:56:56;101379.53;;;9.34;75.49
17785;BME280;9016;53.582;10.062;2024-02-04T08:59:24;101388.34;;;9.54;75.24
17785;BME280;9016;53.582;10.062;2024-02-04T09:01:55;101368.47;;;9.43;74.95
17785;BME280;9016;53.582;10.062;2024-02-04T09:04:23;101372.44;;;9.34;75.28
17785;BME280;9016;53.582;10.062;2024-02-04T09:06:51;101366.16;;;9.35;75.51
17785;BME280;9016;53.582;10.062;2024-02-04T09:09:19;101373.31;;;9.35;74.69
17785;BME280;9016;53.582;10.062;2024-02-04T09:11:47;101355.97;;;9.45;75.42
17785;BME280;9016;53.582;10.062;2024-02-04T09:14:16;101364.53;;;9.33;75.17
17785;BME280;9016;53.582;10.062;2024-02-04T09:16:44;101364.13;;;9.42;75.21
17785;BME280;9016;53.582;10.062;2024-02-04T09:19:13;101368.03;;;9.53;74.86
17785;BME280;9016;53.582;10.062;2024-02-04T09:21:41;101359.72;;;9.59;75.01
17785;BME280;9016;53.582;10.062;2024-02-04T09:24:10;101367.66;;;9.61;74.05
17785;BME280;9016;53.582;10.062;2024-02-04T09:26:38;101375.13;;;9.53;74.19
17785;BME280;9016;53.582;10.062;2024-02-04T09:29:06;101378.16;;;9.64;74.62
17785;BME280;9016;53.582;10.062;2024-02-04T09:31:35;101373.03;;;9.59;74.35
17785;BME280;9016;53.582;10.062;2024-02-04T09:34:04;101372.84;;;9.64;74.08
17785;BME280;9016;53.582;10.062;2024-02-04T09:36:33;101379.19;;;9.41;74.06
17785;BME280;9016;53.582;10.062;2024-02-04T09:39:01;101380.59;;;9.50;74.03
17785;BME280;9016;53.582;10.062;2024-02-04T09:41:30;101380.38;;;9.54;74.98
17785;BME280;9016;53.582;10.062;2024-02-04T09:43:59;101377.63;;;9.56;74.79
17785;BME280;9016;53.582;10.062;2024-02-04T09:46:27;101367.44;;;9.65;74.29
17785;BME280;9016;53.582;10.062;2024-02-04T09:48:57;101361.75;;;9.73;73.55
17785;BME280;9016;53.582;10.062;2024-02-04T09:51:26;101377.72;;;9.73;73.82
17785;BME280;9016;53.582;10.062;2024-02-04T09:53:58;101365.84;;;9.80;73.35
17785;BME280;9016;53.582;10.062;2024-02-04T09:56:30;101371.78;;;9.86;73.76
17785;BME280;9016;53.582;10.062;2024-02-04T09:59:00;101373.41;;;9.89;73.52
17785;BME280;9016;53.582;10.062;2024-02-04T10:01:28;101372.13;;;9.97;73.40
17785;BME280;9016;53.582;10.062;2024-02-04T10:03:59;101377.44;;;9.79;73.03
17785;BME280;9016;53.582;10.062;2024-02-04T10:06:27;101364.84;;;9.82;73.70
17785;BME280;9016;53.582;10.062;2024-02-04T10:09:00;101360.09;;;9.89;73.36
17785;BME280;9016;53.582;10.062;2024-02-04T10:11:31;101363.63;;;9.71;73.85
17785;BME280;9016;53.582;10.062;2024-02-04T10:14:00;101345.63;;;9.76;73.91
17785;BME280;9016;53.582;10.062;2024-02-04T10:16:28;101344.56;;;9.80;73.41
17785;BME280;9016;53.582;10.062;2024-02-04T10:18:56;101339.25;;;9.80;73.36
17785;BME280;9016;53.582;10.062;2024-02-04T10:21:26;101347.28;;;9.97;73.56
17785;BME280;9016;53.582;10.062;2024-02-04T10:23:54;101333.19;;;9.95;73.47
17785;BME280;9016;53.582;10.062;2024-02-04T10:26:28;101329.72;;;9.93;73.19
17785;BME280;9016;53.582;10.062;2024-02-04T10:28:58;101342.88;;;9.96;72.86
17785;BME280;9016;53.582;10.062;2024-02-04T10:31:26;101344.91;;;9.91;73.44
17785;BME280;9016;53.582;10.062;2024-02-04T10:33:54;101346.13;;;10.02;73.29
17785;BME280;9016;53.582;10.062;2024-02-04T10:36:23;101345.13;;;10.05;72.22
17785;BME280;9016;53.582;10.062;2024-02-04T10:38:52;101357.00;;;9.98;72.63
17785;BME280;9016;53.582;10.062;2024-02-04T10:41:25;101334.31;;;10.08;72.72
17785;BME280;9016;53.582;10.062;2024-02-04T10:43:58;101335.56;;;10.01;73.01
17785;BME280;9016;53.582;10.062;2024-02-04T10:46:30;101323.50;;;9.94;73.01
17785;BME280;9016;53.582;10.062;2024-02-04T10:49:00;101324.56;;;9.90;73.75
17785;BME280;9016;53.582;10.062;2024-02-04T10:51:35;101330.75;;;10.09;73.26
17785;BME280;9016;53.582;10.062;2024-02-04T10:54:24;101323.41;;;10.14;72.54
17785;BME280;9016;53.582;10.062;2024-02-04T10:57:05;101313.59;;;10.15;72.37
17785;BME280;9016;53.582;10.062;2024-02-04T10:59:43;101326.78;;;10.18;72.76
17785;BME280;9016;53.582;10.062;2024-02-04T11:02:16;101311.91;;;10.14;72.66
17785;BME280;9016;53.582;10.062;2024-02-04T11:04:45;101310.44;;;10.25;72.25
17785;BME280;9016;53.582;10.062;2024-02-04T11:07:17;101320.72;;;10.33;71.76
17785;BME280;9016;53.582;10.062;2024-02-04T11:09:48;101320.38;;;10.39;71.95
17785;BME280;9016;53.582;10.062;2024-02-04T11:12:18;101299.53;;;10.47;70.34
17785;BME280;9016;53.582;10.062;2024-02-04T11:14:51;101304.50;;;10.54;71.01
17785;BME280;9016;53.582;10.062;2024-02-04T11:17:33;101296.50;;;10.71;70.08
17785;BME280;9016;53.582;10.062;2024-02-04T11:20:17;101312.47;;;10.54;70.89
17785;BME280;9016;53.582;10.062;2024-02-04T11:23:05;101296.88;;;10.64;70.76
17785;BME280;9016;53.582;10.062;2024-02-04T11:25:45;101301.56;;;10.59;69.98
17785;BME280;9016;53.582;10.062;2024-02-04T11:28:15;101306.84;;;10.60;69.80
17785;BME280;9016;53.582;10.062;2024-02-04T11:30:44;101293.88;;;10.70;69.85
17785;BME280;9016;53.582;10.062;2024-02-04T11:33:17;101306.38;;;10.69;70.08
17785;BME280;9016;53.582;10.062;2024-02-04T11:35:46;101294.63;;;10.56;70.29
17785;BME280;9016;53.582;10.062;2024-02-04T11:38:17;101295.63;;;10.71;70.10
17785;BME280;9016;53.582;10.062;2024-02-04T11:40:47;101296.72;;;10.67;69.99
17785;BME280;9016;53.582;10.062;2024-02-04T11:43:15;101292.41;;;10.64;69.90
17785;BME280;9016;53.582;10.062;2024-02-04T11:45:43;101299.00;;;10.74;70.18
17785;BME280;9016;53.582;10.062;2024-02-04T11:48:13;101293.44;;;10.79;68.95
17785;BME280;9016;53.582;10.062;2024-02-04T11:50:52;101289.44;;;11.03;69.17
17785;BME280;9016;53.582;10.062;2024-02-04T11:53:21;101293.00;;;10.86;69.40
17785;BME280;9016;53.582;10.062;2024-02-04T11:55:52;101293.16;;;11.01;68.65
17785;BME280;9016;53.582;10.062;2024-02-04T11:58:20;101288.41;;;10.90;68.76
17785;BME280;9016;53.582;10.062;2024-02-04T12:00:51;101295.81;;;11.01;68.69
17785;BME280;9016;53.582;10.062;2024-02-04T12:03:28;101296.44;;;10.88;69.01
17785;BME280;9016;53.582;10.062;2024-02-04T12:05:57;101306.09;;;10.91;69.49
17785;BME280;9016;53.582;10.062;2024-02-04T12:08:26;101287.91;;;10.99;69.19
17785;BME280;9016;53.582;10.062;2024-02-04T12:10:56;101294.94;;;11.17;68.82
17785;BME280;9016;53.582;10.062;2024-02-04T12:13:25;101298.50;;;11.16;68.73
17785;BME280;9016;53.582;10.062;2024-02-04T12:15:54;101282.78;;;11.12;68.04
17785;BME280;9016;53.582;10.062;2024-02-04T12:18:22;101277.25;;;11.15;68.19
17785;BME280;9016;53.582;10.062;2024-02-04T12:20:51;101293.94;;;11.03;68.52
17785;BME280;9016;53.582;10.062;2024-02-04T12:23:20;101286.38;;;11.11;68.54
17785;BME280;9016;53.582;10.062;2024-02-04T12:25:50;101282.22;;;11.05;68.43
17785;BME280;9016;53.582;10.062;2024-02-04T12:28:20;101293.28;;;11.15;67.81
17785;BME280;9016;53.582;10.062;2024-02-04T12:30:53;101272.09;;;11.12;68.92
17785;BME280;9016;53.582;10.062;2024-02-04T12:33:22;101268.94;;;11.21;67.64
17785;BME280;9016;53.582;10.062;2024-02-04T12:36:00;101260.56;;;11.11;67.73
17785;BME280;9016;53.582;10.062;2024-02-04T12:38:53;101284.28;;;11.00;67.93
17785;BME280;9016;53.582;10.062;2024-02-04T12:41:33;101276.84;;;11.07;68.45
17785;BME280;9016;53.582;10.062;2024-02-04T12:44:18;101267.91;;;10.90;68.92
17785;BME280;9016;53.582;10.062;2024-02-04T12:46:50;101273.72;;;10.81;69.36
17785;BME280;9016;53.582;10.062;2024-02-04T12:49:19;101277.13;;;10.68;69.58
17785;BME280;9016;53.582;10.062;2024-02-04T12:51:49;101273.59;;;10.84;69.78
17785;BME280;9016;53.582;10.062;2024-02-04T12:54:18;101263.47;;;10.74;69.49
17785;BME280;9016;53.582;10.062;2024-02-04T12:56:48;101258.53;;;10.83;69.20
17785;BME280;9016;53.582;10.062;2024-02-04T12:59:26;101263.84;;;10.83;68.97
17785;BME280;9016;53.582;10.062;2024-02-04T13:01:56;101266.84;;;10.77;69.26
17785;BME280;9016;53.582;10.062;2024-02-04T13:04:24;101263.28;;;10.94;69.68
17785;BME280;9016;53.582;10.062;2024-02-04T13:06:53;101268.06;;;11.05;69.46
17785;BME280;9016;53.582;10.062;2024-02-04T13:09:21;101272.31;;;10.91;68.88